Time;durP1;ratioP1;P1;durP2;ratioP2;P2;SDS_P1;SDS_P2;PMS_P1;PMS_P2;Temp;Humidity;BMP_temperature;BMP_pressure;BME280_temperature;BME280_humidity;BME280_pressure;Samples;Min_cycle;Max_cycle;Signal;HPM_P1;HPM_P2
2022/07/15 00:02:23;;;;;;;3.83;3.47;;;19.50;92.50;;;;;;5054612;28;20810;-72
2022/07/15 00:04:49;;;;;;;3.90;3.60;;;19.50;92.60;;;;;;5053056;28;20428;-72
2022/07/15 00:07:15;;;;;;;3.73;3.43;;;19.40;92.70;;;;;;5054561;28;20491;-72
2022/07/15 00:12:26;;;;;;;4.17;3.60;;;19.40;93.40;;;;;;5054588;28;20471;-72
2022/07/15 00:14:52;;;;;;;4.13;3.83;;;19.30;94.00;;;;;;5052122;28;21044;-71
2022/07/15 00:17:18;;;;;;;3.70;3.50;;;19.30;93.90;;;;;;5054089;28;20423;-71
2022/07/15 00:19:43;;;;;;;4.03;3.73;;;19.30;93.70;;;;;;5051704;28;20188;-72
2022/07/15 00:22:09;;;;;;;3.60;3.40;;;19.30;94.10;;;;;;5054218;28;20312;-72
2022/07/15 00:24:35;;;;;;;3.63;3.43;;;19.20;94.00;;;;;;5052549;28;20277;-74
2022/07/15 00:27:02;;;;;;;3.77;3.57;;;19.20;94.20;;;;;;5053771;28;20182;-72
2022/07/15 00:29:29;;;;;;;4.20;3.60;;;19.20;95.00;;;;;;5052680;28;20584;-71
2022/07/15 00:31:54;;;;;;;4.20;3.50;;;19.20;94.80;;;;;;5052583;28;20923;-71
2022/07/15 00:34:21;;;;;;;3.80;3.50;;;19.20;95.00;;;;;;5051496;28;20428;-72
2022/07/15 00:36:47;;;;;;;3.73;3.53;;;19.20;95.50;;;;;;5052804;28;20253;-72
2022/07/15 00:39:14;;;;;;;4.03;3.73;;;19.20;95.30;;;;;;5039596;28;20437;-72
2022/07/15 00:41:41;;;;;;;4.50;4.10;;;19.20;95.70;;;;;;5033353;28;20503;-72
2022/07/15 00:44:08;;;;;;;4.50;3.90;;;19.30;95.50;;;;;;5045751;28;20523;-72
2022/07/15 00:46:36;;;;;;;4.00;3.70;;;19.30;95.70;;;;;;5053534;28;20412;-72
2022/07/15 00:49:03;;;;;;;4.00;3.70;;;19.30;96.00;;;;;;5053850;28;20504;-72
2022/07/15 00:51:45;;;;;;;3.63;3.40;;;19.30;95.90;;;;;;5053750;28;20420;-71
2022/07/15 00:54:14;;;;;;;4.00;3.70;;;19.30;95.80;;;;;;5052247;28;20428;-72
2022/07/15 00:56:47;;;;;;;3.73;3.43;;;19.30;96.30;;;;;;5035463;28;20790;-72
2022/07/15 00:59:13;;;;;;;6.43;4.40;;;19.30;96.90;;;;;;5053662;28;20385;-71
2022/07/15 01:01:41;;;;;;;4.10;3.80;;;19.30;96.10;;;;;;5052820;28;20429;-72
2022/07/15 01:04:09;;;;;;;5.43;4.93;;;19.30;96.40;;;;;;5052598;28;20474;-72
2022/07/15 01:06:35;;;;;;;4.00;3.70;;;19.30;97.80;;;;;;5053117;28;20416;-71
2022/07/15 01:09:06;;;;;;;4.30;3.90;;;19.20;97.20;;;;;;4999856;28;20472;-71
2022/07/15 01:11:31;;;;;;;7.80;4.90;;;19.30;97.40;;;;;;5052527;28;20903;-72
2022/07/15 01:13:59;;;;;;;4.40;4.00;;;19.30;97.50;;;;;;5051027;28;20436;-71
2022/07/15 01:16:25;;;;;;;4.30;4.00;;;19.30;98.40;;;;;;5052943;28;20248;-71
2022/07/15 01:18:51;;;;;;;4.13;3.70;;;19.30;98.90;;;;;;5050585;28;20424;-72
2022/07/15 01:21:17;;;;;;;5.10;3.90;;;19.40;97.80;;;;;;5053137;28;20463;-72
2022/07/15 01:23:43;;;;;;;4.23;3.93;;;19.40;98.80;;;;;;5051595;28;20181;-71
2022/07/15 01:26:11;;;;;;;4.20;3.83;;;19.40;98.20;;;;;;5053327;28;20962;-71
2022/07/15 01:28:37;;;;;;;3.83;3.63;;;19.50;96.90;;;;;;5051500;28;20178;-74
2022/07/15 01:31:04;;;;;;;5.40;3.90;;;19.50;97.10;;;;;;5053177;28;20893;-71
2022/07/15 01:33:30;;;;;;;4.63;4.27;;;19.50;97.60;;;;;;5050889;28;20456;-71
2022/07/15 01:35:56;;;;;;;4.17;3.93;;;19.50;97.60;;;;;;5052102;28;20499;-71
2022/07/15 01:38:22;;;;;;;4.13;3.83;;;19.50;97.10;;;;;;5053056;28;20641;-71
2022/07/15 01:40:47;;;;;;;4.10;3.90;;;19.50;96.60;;;;;;5051862;28;20177;-72
2022/07/15 01:43:13;;;;;;;4.87;4.47;;;19.50;98.00;;;;;;5051866;28;20544;-72
2022/07/15 01:45:43;;;;;;;4.70;4.33;;;19.50;96.60;;;;;;5052132;28;20231;-73
2022/07/15 01:49:21;;;;;;;4.20;3.90;;;19.50;96.20;;;;;;5052715;28;20169;-72
2022/07/15 01:50:57;;;;;;;4.70;4.23;;;19.50;97.30;;;;;;5051882;28;20436;-72
2022/07/15 01:53:23;;;;;;;3.80;3.50;;;19.50;97.50;;;;;;5051736;28;20531;-72
2022/07/15 01:55:49;;;;;;;3.90;3.60;;;19.50;98.50;;;;;;5034241;28;20418;-72
2022/07/15 01:58:15;;;;;;;3.90;3.70;;;19.40;99.70;;;;;;5051571;28;20515;-72
2022/07/15 02:00:41;;;;;;;4.00;3.70;;;19.40;96.50;;;;;;5050448;28;20190;-72
2022/07/15 02:03:07;;;;;;;4.30;4.00;;;19.40;96.90;;;;;;5051032;28;21560;-71
2022/07/15 02:05:34;;;;;;;4.30;4.00;;;19.40;97.20;;;;;;5052240;28;20419;-71
2022/07/15 02:08:01;;;;;;;4.13;3.70;;;19.40;96.40;;;;;;5050259;28;20428;-71
2022/07/15 02:10:39;;;;;;;5.53;4.20;;;19.40;98.10;;;;;;5052453;28;20549;-71
2022/07/15 02:13:12;;;;;;;5.17;3.90;;;19.40;97.60;;;;;;5051514;28;20812;-71
2022/07/15 02:15:40;;;;;;;5.50;3.53;;;19.40;96.60;;;;;;5052412;28;20927;-71
2022/07/15 02:18:06;;;;;;;4.57;3.90;;;19.40;97.40;;;;;;5017300;28;20782;-72
2022/07/15 02:20:32;;;;;;;3.73;3.43;;;19.40;98.70;;;;;;5051812;28;20468;-72
2022/07/15 02:22:58;;;;;;;4.30;3.73;;;19.40;99.10;;;;;;5048972;28;20432;-72
2022/07/15 02:25:28;;;;;;;4.37;4.00;;;19.40;98.10;;;;;;5052012;28;20428;-71
2022/07/15 02:27:58;;;;;;;3.57;3.37;;;19.40;97.70;;;;;;5050497;28;20443;-72
2022/07/15 02:30:30;;;;;;;4.20;3.90;;;19.50;98.20;;;;;;5051805;28;20456;-71
2022/07/15 02:32:57;;;;;;;4.50;4.10;;;19.50;97.20;;;;;;5049486;28;20432;-73
2022/07/15 02:35:23;;;;;;;4.67;3.97;;;19.40;97.80;;;;;;5031666;28;20428;-72
2022/07/15 02:37:52;;;;;;;8.47;3.60;;;19.40;97.80;;;;;;5045448;28;20795;-72
2022/07/15 02:40:17;;;;;;;6.30;3.77;;;19.50;97.90;;;;;;5051784;28;20412;-71
2022/07/15 02:42:48;;;;;;;4.53;4.13;;;19.40;97.10;;;;;;5050669;28;20766;-74
2022/07/15 02:45:14;;;;;;;4.70;3.87;;;19.40;97.80;;;;;;5050681;28;20714;-71
2022/07/15 02:47:40;;;;;;;3.70;3.40;;;19.40;97.20;;;;;;5051217;28;20424;-73
2022/07/15 02:50:06;;;;;;;3.77;3.47;;;19.30;98.10;;;;;;5030636;28;20252;-72
2022/07/15 02:52:31;;;;;;;5.20;3.70;;;19.20;98.30;;;;;;5045027;28;20213;-72
2022/07/15 02:54:58;;;;;;;5.90;4.50;;;19.20;98.30;;;;;;5018711;28;20455;-72
2022/07/15 02:57:24;;;;;;;4.80;4.40;;;19.30;98.00;;;;;;5055174;28;20633;-71
2022/07/15 02:59:49;;;;;;;4.93;4.53;;;19.20;96.70;;;;;;5054380;28;20415;-72
2022/07/15 03:02:15;;;;;;;4.17;3.87;;;19.30;96.70;;;;;;5054724;28;20241;-72
2022/07/15 03:04:41;;;;;;;5.37;3.70;;;19.30;97.20;;;;;;5054466;28;20209;-72
2022/07/15 03:07:07;;;;;;;5.60;4.20;;;19.20;96.70;;;;;;5054569;28;20182;-72
2022/07/15 03:09:32;;;;;;;9.03;4.33;;;19.20;97.20;;;;;;5054452;28;20304;-72
2022/07/15 03:11:58;;;;;;;4.50;4.10;;;19.10;97.00;;;;;;5053656;28;20186;-72
2022/07/15 03:14:27;;;;;;;8.13;4.73;;;19.10;97.00;;;;;;5054177;28;20213;-71
2022/07/15 03:16:52;;;;;;;5.30;3.67;;;19.10;96.80;;;;;;5002706;28;20244;-72
2022/07/15 03:19:19;;;;;;;3.73;3.53;;;19.10;97.30;;;;;;5055503;28;20888;-72
2022/07/15 03:21:45;;;;;;;5.10;3.53;;;19.00;96.60;;;;;;5054160;28;20585;-74
2022/07/15 03:24:12;;;;;;;4.53;4.23;;;19.00;96.30;;;;;;5034758;28;20432;-71
2022/07/15 03:26:38;;;;;;;3.90;3.60;;;19.00;96.50;;;;;;5054724;28;20651;-72
2022/07/15 03:29:05;;;;;;;3.70;3.40;;;18.90;96.50;;;;;;5054195;28;20486;-71
2022/07/15 03:31:31;;;;;;;5.63;3.60;;;18.90;96.40;;;;;;5053048;28;20300;-71
2022/07/15 03:33:59;;;;;;;5.00;3.90;;;18.90;97.60;;;;;;5054022;28;20401;-72
2022/07/15 03:36:25;;;;;;;3.27;3.07;;;18.90;97.30;;;;;;5035935;28;20443;-72
2022/07/15 03:38:51;;;;;;;6.20;4.63;;;18.90;97.50;;;;;;5053845;28;20181;-72
2022/07/15 03:41:21;;;;;;;5.37;4.40;;;18.90;97.20;;;;;;5053803;28;20185;-72
2022/07/15 03:43:46;;;;;;;4.53;4.07;;;18.90;96.90;;;;;;5054298;28;20470;-74
2022/07/15 03:46:15;;;;;;;4.20;3.80;;;18.80;97.50;;;;;;5054243;28;20416;-71
2022/07/15 03:48:41;;;;;;;4.50;4.10;;;18.70;97.00;;;;;;5053527;28;20185;-72
2022/07/15 03:51:07;;;;;;;3.00;2.80;;;18.70;97.30;;;;;;5052117;28;20618;-72
2022/07/15 03:53:33;;;;;;;4.93;3.80;;;18.70;97.30;;;;;;5036603;28;20907;-71
2022/07/15 03:55:59;;;;;;;5.50;4.23;;;18.60;97.00;;;;;;5035709;28;20427;-72
2022/07/15 03:58:24;;;;;;;4.50;4.07;;;18.60;96.60;;;;;;5054318;28;20178;-72
2022/07/15 04:00:50;;;;;;;4.60;4.20;;;18.50;97.60;;;;;;5034865;28;20195;-75
2022/07/15 04:03:16;;;;;;;4.10;3.80;;;18.50;97.10;;;;;;5036452;28;20174;-74
2022/07/15 04:05:42;;;;;;;4.77;4.40;;;18.40;97.00;;;;;;5054242;28;20203;-71
2022/07/15 04:08:08;;;;;;;4.03;3.50;;;18.40;97.20;;;;;;5051591;28;20170;-71
2022/07/15 04:10:34;;;;;;;4.03;3.67;;;18.40;97.80;;;;;;5052396;28;20463;-72
2022/07/15 04:13:00;;;;;;;4.17;3.90;;;18.40;97.70;;;;;;5052623;28;20492;-72
2022/07/15 04:15:28;;;;;;;7.53;4.50;;;18.40;98.00;;;;;;5052724;28;20182;-71
2022/07/15 04:17:54;;;;;;;6.23;4.83;;;18.40;97.80;;;;;;5053313;28;20214;-71
2022/07/15 04:20:21;;;;;;;4.90;4.50;;;18.30;97.90;;;;;;5052918;28;20445;-74
2022/07/15 04:22:49;;;;;;;4.10;3.70;;;18.40;98.80;;;;;;5053004;28;21005;-72
2022/07/15 04:25:17;;;;;;;5.37;4.43;;;18.50;98.70;;;;;;5051322;28;20536;-71
2022/07/15 04:27:43;;;;;;;7.00;4.93;;;18.80;97.90;;;;;;5052702;28;20432;-72
2022/07/15 04:30:09;;;;;;;6.63;4.03;;;19.10;98.30;;;;;;5052881;28;20493;-72
2022/07/15 04:32:36;;;;;;;4.73;4.43;;;19.20;98.30;;;;;;5052891;28;20424;-73
2022/07/15 04:35:02;;;;;;;5.23;4.43;;;19.50;99.90;;;;;;5051885;28;20420;-73
2022/07/15 04:37:28;;;;;;;4.00;3.70;;;19.70;97.70;;;;;;5052173;28;20467;-73
2022/07/15 04:39:55;;;;;;;22.27;16.00;;;19.90;99.90;;;;;;5051586;28;20927;-74
2022/07/15 04:42:21;;;;;;;7.03;4.33;;;20.10;99.90;;;;;;5052523;28;20420;-73
2022/07/15 04:44:47;;;;;;;15.87;11.40;;;20.20;97.10;;;;;;5051668;28;20816;-75
2022/07/15 04:47:14;;;;;;;8.37;5.53;;;20.50;99.10;;;;;;5017099;28;20478;-73
2022/07/15 04:52:24;;;;;;;4.67;3.70;;;20.90;96.10;;;;;;5052460;28;20439;-73
2022/07/15 04:54:54;;;;;;;5.57;3.67;;;20.90;94.00;;;;;;5051544;28;20412;-73
2022/07/15 04:57:20;;;;;;;9.17;7.80;;;20.90;96.10;;;;;;5048170;28;20441;-72
2022/07/15 04:59:47;;;;;;;10.57;7.33;;;21.00;96.70;;;;;;5053132;28;20432;-72
2022/07/15 05:02:12;;;;;;;4.30;3.90;;;21.10;96.70;;;;;;5048805;28;20424;-72
2022/07/15 05:04:39;;;;;;;4.47;3.70;;;21.10;93.80;;;;;;5051669;28;20439;-72
2022/07/15 05:07:05;;;;;;;6.03;4.33;;;21.00;93.10;;;;;;5052564;28;20176;-72
2022/07/15 05:09:31;;;;;;;8.00;6.70;;;20.80;92.70;;;;;;5052825;28;21030;-72
2022/07/15 05:11:57;;;;;;;7.33;4.10;;;20.90;96.30;;;;;;5049952;28;20463;-68
2022/07/15 05:14:23;;;;;;;6.30;4.30;;;20.90;93.00;;;;;;5016853;28;20462;-68
2022/07/15 05:16:49;;;;;;;5.97;5.40;;;20.80;92.10;;;;;;5051885;28;20436;-68
2022/07/15 05:19:15;;;;;;;3.50;3.20;;;20.60;92.20;;;;;;5052794;28;20181;-68
2022/07/15 05:21:41;;;;;;;4.53;4.23;;;20.30;92.80;;;;;;5065567;28;20543;-68
2022/07/15 05:24:07;;;;;;;7.23;3.50;;;20.10;93.10;;;;;;5072185;28;20184;-71
2022/07/15 05:26:33;;;;;;;6.43;3.63;;;19.90;93.00;;;;;;5072786;28;20181;-71
2022/07/15 05:28:59;;;;;;;3.23;2.90;;;19.80;93.40;;;;;;5070632;28;20262;-71
2022/07/15 05:31:25;;;;;;;6.63;3.13;;;19.60;93.70;;;;;;5071029;28;20431;-71
2022/07/15 05:33:52;;;;;;;6.90;5.40;;;19.50;94.40;;;;;;5072076;28;20438;-68
2022/07/15 05:36:18;;;;;;;4.73;4.30;;;19.30;94.70;;;;;;5073195;28;20530;-67
2022/07/15 05:38:45;;;;;;;4.90;4.50;;;19.20;94.40;;;;;;5071104;28;20454;-67
2022/07/15 05:41:11;;;;;;;5.47;4.17;;;19.10;95.30;;;;;;5070080;28;20577;-68
2022/07/15 05:43:37;;;;;;;4.83;4.43;;;19.00;95.00;;;;;;5072138;28;20841;-77
2022/07/15 05:46:04;;;;;;;5.27;4.17;;;18.90;95.10;;;;;;5070072;28;20424;-68
2022/07/15 05:48:30;;;;;;;4.27;3.50;;;18.90;95.60;;;;;;5069604;28;20424;-68
2022/07/15 05:50:56;;;;;;;3.67;3.37;;;18.90;95.90;;;;;;5067552;28;20479;-69
2022/07/15 05:53:22;;;;;;;3.73;3.43;;;18.90;95.80;;;;;;5072685;28;20414;-68
2022/07/15 05:55:48;;;;;;;5.40;4.40;;;18.80;95.70;;;;;;5068425;28;20492;-69
2022/07/15 05:58:13;;;;;;;4.80;3.90;;;18.80;95.60;;;;;;5070821;28;20435;-69
2022/07/15 06:00:39;;;;;;;5.33;3.37;;;18.80;95.60;;;;;;5070800;28;20442;-71
2022/07/15 06:03:05;;;;;;;4.47;3.80;;;18.80;95.80;;;;;;5071726;28;20211;-70
2022/07/15 06:05:32;;;;;;;3.47;3.17;;;18.80;95.40;;;;;;5070164;28;20521;-69
2022/07/15 06:07:58;;;;;;;6.10;3.37;;;18.80;95.30;;;;;;5072126;28;20430;-70
2022/07/15 06:10:24;;;;;;;8.03;3.67;;;18.90;95.80;;;;;;5071012;28;20582;-69
2022/07/15 06:12:52;;;;;;;3.90;3.10;;;18.80;95.00;;;;;;5062351;28;20986;-70
2022/07/15 06:15:19;;;;;;;9.97;3.33;;;18.80;94.60;;;;;;5058036;28;20177;-70
2022/07/15 06:17:45;;;;;;;8.43;3.83;;;18.80;94.90;;;;;;5067983;28;20468;-69
2022/07/15 06:20:11;;;;;;;6.33;3.70;;;18.80;95.10;;;;;;5070433;28;20914;-71
2022/07/15 06:22:37;;;;;;;5.90;3.40;;;18.90;96.20;;;;;;5072003;28;20176;-70
2022/07/15 06:25:04;;;;;;;5.47;3.90;;;18.90;95.00;;;;;;5067558;28;20438;-71
2022/07/15 06:27:30;;;;;;;8.60;3.70;;;18.90;94.40;;;;;;5042365;28;20996;-70
2022/07/15 06:29:57;;;;;;;5.73;3.40;;;18.90;94.70;;;;;;5049544;28;20499;-72
2022/07/15 06:32:25;;;;;;;6.37;3.30;;;18.90;94.30;;;;;;4986783;28;20793;-70
2022/07/15 06:34:51;;;;;;;3.83;3.47;;;19.00;94.00;;;;;;5056188;28;20416;-71
2022/07/15 06:37:17;;;;;;;3.40;3.10;;;19.00;94.50;;;;;;5066508;28;20864;-71
2022/07/15 06:39:43;;;;;;;2.97;2.60;;;19.00;94.10;;;;;;5076140;28;20183;-71
2022/07/15 06:42:10;;;;;;;3.60;3.40;;;19.00;94.20;;;;;;5062379;28;20443;-71
2022/07/15 06:44:35;;;;;;;4.40;3.30;;;19.00;93.80;;;;;;5049078;28;20432;-71
2022/07/15 06:47:02;;;;;;;3.77;3.43;;;19.00;93.60;;;;;;5064615;28;20419;-72
2022/07/15 06:49:28;;;;;;;4.77;2.60;;;19.10;93.70;;;;;;5057686;28;20217;-71
2022/07/15 06:51:54;;;;;;;3.10;2.90;;;19.10;93.70;;;;;;5048928;28;20514;-71
2022/07/15 06:54:20;;;;;;;4.37;3.20;;;19.10;93.60;;;;;;5041248;28;20433;-71
2022/07/15 06:56:46;;;;;;;5.67;3.13;;;19.20;93.20;;;;;;5061812;28;20529;-71
2022/07/15 06:59:12;;;;;;;4.07;3.30;;;19.20;92.90;;;;;;5058793;28;20431;-69
2022/07/15 07:01:37;;;;;;;3.77;2.90;;;19.20;92.20;;;;;;5055222;28;20899;-71
2022/07/15 07:04:03;;;;;;;3.17;2.70;;;19.20;92.00;;;;;;5054460;28;20178;-72
2022/07/15 07:06:30;;;;;;;3.97;3.20;;;19.20;91.20;;;;;;5057884;28;20605;-69
2022/07/15 07:08:55;;;;;;;4.60;3.80;;;19.10;91.10;;;;;;5055331;28;20678;-71
2022/07/15 07:11:21;;;;;;;3.70;3.40;;;19.20;92.10;;;;;;5053950;28;20423;-76
2022/07/15 07:13:48;;;;;;;3.63;2.90;;;19.30;92.40;;;;;;5055271;28;20185;-73
2022/07/15 07:16:14;;;;;;;3.87;3.50;;;19.50;92.70;;;;;;5063647;28;20180;-73
2022/07/15 07:18:40;;;;;;;3.20;2.80;;;19.80;90.80;;;;;;5073801;28;20434;-73
2022/07/15 07:21:05;;;;;;;4.60;3.20;;;20.10;93.10;;;;;;5063156;28;20228;-74
2022/07/15 07:23:31;;;;;;;6.13;3.80;;;20.40;97.20;;;;;;5065140;28;20523;-71
2022/07/15 07:25:58;;;;;;;2.67;2.27;;;20.90;99.60;;;;;;5052016;28;20184;-74
2022/07/15 07:28:24;;;;;;;3.40;3.10;;;21.00;89.30;;;;;;5068899;28;20184;-74
2022/07/15 07:30:52;;;;;;;3.23;3.03;;;20.90;82.50;;;;;;5073299;28;20465;-73
2022/07/15 07:33:18;;;;;;;2.77;2.57;;;20.80;80.90;;;;;;5054701;28;20408;-73
2022/07/15 07:35:44;;;;;;;3.40;2.67;;;20.70;80.00;;;;;;5061640;28;20428;-74
2022/07/15 07:38:10;;;;;;;4.07;2.60;;;20.70;81.10;;;;;;5052796;28;20416;-73
2022/07/15 07:40:38;;;;;;;3.03;2.70;;;20.60;84.20;;;;;;5053250;28;20420;-73
2022/07/15 07:43:04;;;;;;;3.83;3.50;;;20.50;84.00;;;;;;5035075;28;20412;-74
2022/07/15 07:45:30;;;;;;;4.13;3.50;;;20.50;85.30;;;;;;5051548;28;20800;-74
2022/07/15 07:47:56;;;;;;;4.80;4.00;;;20.40;83.40;;;;;;5053523;28;20188;-74
2022/07/15 07:50:22;;;;;;;3.63;3.13;;;20.40;85.30;;;;;;5053807;28;20231;-74
2022/07/15 07:52:48;;;;;;;3.90;3.53;;;20.40;85.00;;;;;;5053602;28;20411;-74
2022/07/15 07:55:17;;;;;;;3.70;3.40;;;20.40;84.20;;;;;;5062273;28;20434;-74
2022/07/15 07:57:51;;;;;;;3.77;3.43;;;20.50;83.10;;;;;;5058463;28;21075;-74
2022/07/15 08:00:17;;;;;;;4.30;3.90;;;20.40;83.00;;;;;;5036193;28;20482;-74
2022/07/15 08:02:44;;;;;;;2.83;2.63;;;20.40;84.90;;;;;;5054389;28;20854;-74
2022/07/15 08:05:10;;;;;;;3.17;2.67;;;20.50;83.80;;;;;;5051446;28;20457;-75
2022/07/15 08:07:36;;;;;;;3.03;2.00;;;20.50;85.10;;;;;;5052015;28;20460;-75
2022/07/15 08:10:04;;;;;;;2.77;2.43;;;20.60;83.30;;;;;;5040856;28;20995;-79
2022/07/15 08:12:30;;;;;;;2.73;2.40;;;20.60;82.90;;;;;;5064377;28;20209;-80
2022/07/15 08:14:56;;;;;;;2.70;2.60;;;20.60;83.30;;;;;;5053306;28;20791;-81
2022/07/15 08:17:22;;;;;;;2.77;2.67;;;20.70;83.00;;;;;;5052705;28;20526;-80
2022/07/15 08:19:48;;;;;;;4.40;2.80;;;20.70;82.90;;;;;;5054423;28;20513;-80
2022/07/15 08:22:14;;;;;;;4.97;3.07;;;20.70;83.50;;;;;;5012418;28;1105080;-76
2022/07/15 08:24:40;;;;;;;2.87;2.60;;;20.80;81.60;;;;;;5033543;28;20699;-75
2022/07/15 08:27:06;;;;;;;3.07;2.80;;;20.80;80.10;;;;;;5051453;28;20431;-76
2022/07/15 08:29:31;;;;;;;2.30;2.10;;;20.80;80.30;;;;;;5035642;28;20456;-75
2022/07/15 08:31:57;;;;;;;3.00;2.80;;;20.90;80.30;;;;;;5053613;28;20245;-76
2022/07/15 08:34:23;;;;;;;4.70;2.43;;;21.00;81.10;;;;;;5051027;28;20188;-75
2022/07/15 08:36:49;;;;;;;3.73;2.60;;;21.00;80.10;;;;;;5035662;28;20222;-75
2022/07/15 08:39:15;;;;;;;3.17;2.87;;;21.00;81.00;;;;;;5051244;28;20657;-75
2022/07/15 08:41:41;;;;;;;3.33;2.30;;;21.00;82.30;;;;;;5053430;28;20485;-75
2022/07/15 08:44:07;;;;;;;2.60;2.40;;;21.00;79.80;;;;;;5052314;28;20416;-76
2022/07/15 08:46:35;;;;;;;2.60;2.40;;;20.90;78.20;;;;;;5053595;28;20414;-75
2022/07/15 08:49:11;;;;;;;3.57;3.00;;;20.90;79.90;;;;;;5053021;28;20911;-75
2022/07/15 08:51:41;;;;;;;3.00;2.80;;;20.90;79.90;;;;;;5035069;28;20423;-75
2022/07/15 08:54:07;;;;;;;5.07;2.40;;;20.90;80.30;;;;;;5052538;28;20403;-75
2022/07/15 08:56:37;;;;;;;3.13;2.90;;;20.90;79.50;;;;;;5034329;28;20716;-75
2022/07/15 08:59:04;;;;;;;3.00;2.80;;;20.80;78.70;;;;;;5053298;28;20426;-75
2022/07/15 09:01:31;;;;;;;3.17;2.87;;;20.80;81.20;;;;;;5052844;28;20404;-75
2022/07/15 09:03:57;;;;;;;3.47;3.20;;;20.70;83.60;;;;;;5053602;28;20466;-75
2022/07/15 09:06:36;;;;;;;3.37;3.17;;;20.70;82.30;;;;;;5052074;28;20412;-75
2022/07/15 09:09:25;;;;;;;4.53;3.37;;;20.70;85.40;;;;;;5051914;28;20518;-75
2022/07/15 09:12:03;;;;;;;4.10;2.63;;;20.80;81.40;;;;;;5052709;28;20420;-75
2022/07/15 09:14:30;;;;;;;4.33;2.90;;;20.80;83.00;;;;;;5052744;28;20399;-75
2022/07/15 09:17:11;;;;;;;2.57;2.40;;;20.80;82.70;;;;;;5052765;28;20903;-75
2022/07/15 09:19:57;;;;;;;3.50;3.20;;;20.80;83.60;;;;;;5053323;28;20415;-76
2022/07/15 09:22:26;;;;;;;3.43;3.23;;;20.80;80.70;;;;;;5053027;28;20886;-76
2022/07/15 09:25:07;;;;;;;3.60;3.30;;;20.90;82.70;;;;;;5054767;28;20462;-76
2022/07/15 09:27:37;;;;;;;5.03;3.20;;;21.20;88.30;;;;;;5052048;28;20927;-75
2022/07/15 09:36:05;;;;;;;2.47;2.27;;;21.80;77.50;;;;;;5052492;28;20495;-75
2022/07/15 09:38:40;;;;;;;3.73;3.13;;;21.80;78.90;;;;;;5034735;28;20442;-75
2022/07/15 09:41:09;;;;;;;3.70;3.50;;;21.80;78.50;;;;;;5050287;28;20497;-78
2022/07/15 09:43:50;;;;;;;3.40;3.10;;;21.70;77.40;;;;;;5050458;28;20786;-75
2022/07/15 09:46:48;;;;;;;5.90;3.40;;;21.70;79.60;;;;;;5010370;28;20457;-75
2022/07/15 09:49:22;;;;;;;4.43;4.00;;;21.70;80.30;;;;;;5009611;28;20564;-75
2022/07/15 09:52:01;;;;;;;4.23;3.93;;;21.60;80.70;;;;;;5009371;28;20452;-75
2022/07/15 09:54:32;;;;;;;5.03;3.70;;;21.60;80.80;;;;;;5009648;28;20523;-76
2022/07/15 09:56:59;;;;;;;6.27;3.83;;;21.50;82.00;;;;;;5009544;28;20422;-75
2022/07/15 09:59:27;;;;;;;4.43;4.03;;;21.50;81.30;;;;;;5009411;28;20426;-75
2022/07/15 10:01:53;;;;;;;3.67;3.40;;;21.50;78.80;;;;;;5010190;28;20492;-75
2022/07/15 10:04:24;;;;;;;4.77;4.20;;;21.40;80.00;;;;;;4993005;28;20860;-75
2022/07/15 10:06:54;;;;;;;4.40;3.80;;;21.50;81.20;;;;;;5010164;28;20476;-75
2022/07/15 10:09:28;;;;;;;6.70;4.23;;;21.60;82.10;;;;;;5006450;28;20469;-88
2022/07/15 10:12:15;;;;;;;4.00;3.70;;;21.90;83.50;;;;;;5004495;28;20440;-75
2022/07/15 10:14:59;;;;;;;4.00;3.20;;;22.10;83.30;;;;;;5008831;28;20406;-75
2022/07/15 10:17:46;;;;;;;4.37;4.00;;;22.30;75.40;;;;;;5025222;28;20527;-76
2022/07/15 10:20:18;;;;;;;5.03;4.57;;;22.20;76.80;;;;;;5051023;28;20428;-75
2022/07/15 10:22:46;;;;;;;3.63;3.43;;;22.20;77.10;;;;;;5051189;28;20440;-81
2022/07/15 10:25:33;;;;;;;7.03;3.70;;;22.20;90.00;;;;;;5047796;28;20440;-76
2022/07/15 10:28:36;;;;;;;3.23;2.93;;;22.20;90.10;;;;;;5032405;28;20409;-80
2022/07/15 10:31:22;;;;;;;3.90;3.60;;;22.40;89.00;;;;;;5039801;28;20478;-79
2022/07/15 10:34:04;;;;;;;3.60;3.43;;;22.50;85.30;;;;;;5029441;28;20791;-78
2022/07/15 10:36:39;;;;;;;3.90;3.60;;;22.80;83.50;;;;;;5051208;28;20420;-78
2022/07/15 10:39:06;;;;;;;4.60;3.60;;;23.10;82.20;;;;;;5049477;28;20857;-76
2022/07/15 10:41:58;;;;;;;4.67;4.27;;;23.30;80.60;;;;;;5049629;28;20523;-77
2022/07/15 10:44:29;;;;;;;5.00;3.20;;;23.70;77.70;;;;;;5038149;28;20788;-77
2022/07/15 10:47:30;;;;;;;4.70;3.67;;;23.80;79.30;;;;;;5046761;28;20416;-77
2022/07/15 10:49:56;;;;;;;3.67;3.50;;;23.80;77.40;;;;;;4949823;29;20487;-77
2022/07/15 10:52:30;;;;;;;3.27;3.07;;;23.80;72.60;;;;;;5014182;28;20433;-77
2022/07/15 10:54:55;;;;;;;3.83;3.63;;;23.80;68.30;;;;;;5031589;28;20167;-78
2022/07/15 10:57:41;;;;;;;3.40;3.17;;;23.80;68.90;;;;;;5040683;28;20841;-78
2022/07/15 11:00:25;;;;;;;2.90;2.80;;;23.70;71.10;;;;;;5039034;28;20188;-78
2022/07/15 11:03:08;;;;;;;4.03;3.73;;;23.60;70.20;;;;;;5051600;28;20417;-78
2022/07/15 11:05:56;;;;;;;3.83;3.57;;;23.50;70.90;;;;;;5051142;28;20396;-78
2022/07/15 11:08:33;;;;;;;3.63;3.43;;;23.40;76.00;;;;;;5017332;28;20438;-78
2022/07/15 11:11:14;;;;;;;3.77;3.23;;;23.30;69.40;;;;;;5051558;28;20464;-78
2022/07/15 11:13:45;;;;;;;4.10;3.80;;;23.20;71.20;;;;;;5053374;28;20426;-78
2022/07/15 11:16:20;;;;;;;4.20;4.00;;;23.10;71.30;;;;;;5053663;28;20456;-90
2022/07/15 11:18:46;;;;;;;4.43;4.10;;;23.20;79.30;;;;;;5051050;28;20431;-77
2022/07/15 11:21:13;;;;;;;4.20;3.90;;;23.20;72.40;;;;;;5051935;28;20470;-78
2022/07/15 11:23:39;;;;;;;5.20;4.70;;;23.20;75.50;;;;;;5050379;28;20435;-78
2022/07/15 11:26:05;;;;;;;5.03;4.63;;;23.10;77.40;;;;;;5054518;28;20443;-78
2022/07/15 11:28:30;;;;;;;4.13;3.83;;;23.10;75.90;;;;;;5053948;28;20174;-78
2022/07/15 11:30:56;;;;;;;4.43;4.13;;;23.10;73.10;;;;;;5054589;28;20487;-78
2022/07/15 11:33:29;;;;;;;4.07;3.80;;;23.10;71.50;;;;;;5051656;28;20235;-78
2022/07/15 11:36:00;;;;;;;4.10;3.90;;;23.00;73.00;;;;;;5052267;28;20431;-78
2022/07/15 11:38:30;;;;;;;4.23;3.93;;;23.00;73.60;;;;;;5052863;28;20424;-78
2022/07/15 11:46:30;;;;;;;3.43;3.20;;;22.90;74.60;;;;;;5053523;28;20709;-78
2022/07/15 11:48:57;;;;;;;3.60;3.10;;;22.90;75.10;;;;;;5054331;28;20789;-78
2022/07/15 11:51:26;;;;;;;3.43;3.23;;;22.90;76.80;;;;;;5052391;28;20478;-80
2022/07/15 11:53:55;;;;;;;3.00;2.57;;;23.10;83.60;;;;;;5046175;28;20463;-77
2022/07/15 11:56:21;;;;;;;3.50;3.20;;;23.30;79.40;;;;;;5051386;28;20463;-77
2022/07/15 11:58:53;;;;;;;5.53;3.50;;;23.50;79.80;;;;;;5047914;28;20451;-77
2022/07/15 12:01:28;;;;;;;3.67;3.30;;;23.60;74.80;;;;;;5050262;28;20444;-77
2022/07/15 12:03:55;;;;;;;5.00;4.60;;;23.80;76.00;;;;;;5047078;28;20471;-77
2022/07/15 12:06:32;;;;;;;3.40;3.10;;;23.90;75.20;;;;;;5049271;28;20919;-77
2022/07/15 12:09:01;;;;;;;3.87;3.17;;;23.90;73.40;;;;;;5050111;28;20450;-77
2022/07/15 12:11:35;;;;;;;3.87;3.30;;;23.90;74.40;;;;;;5048257;28;21039;-77
2022/07/15 12:14:07;;;;;;;3.73;3.43;;;23.80;77.70;;;;;;5028552;28;20440;-78
2022/07/15 12:16:39;;;;;;;3.87;3.57;;;23.80;74.70;;;;;;5026526;28;20440;-77
2022/07/15 12:19:13;;;;;;;3.67;3.37;;;23.80;72.10;;;;;;5053777;28;20456;-78
2022/07/15 12:21:41;;;;;;;4.03;3.63;;;23.80;72.40;;;;;;5047093;28;20947;-77
2022/07/15 12:24:11;;;;;;;3.97;3.60;;;23.70;71.10;;;;;;5047969;28;20428;-78
2022/07/15 12:26:40;;;;;;;4.07;3.80;;;23.70;74.10;;;;;;5050571;28;20436;-75
2022/07/15 12:29:09;;;;;;;3.50;3.20;;;23.70;73.70;;;;;;5032875;28;20421;-75
2022/07/15 12:31:37;;;;;;;4.00;3.70;;;23.70;72.90;;;;;;5038950;28;20463;-72
2022/07/15 12:34:04;;;;;;;3.90;3.60;;;23.60;73.20;;;;;;5053886;28;20418;-72
2022/07/15 12:36:33;;;;;;;4.00;3.80;;;23.60;73.20;;;;;;5053351;28;20420;-73
2022/07/15 12:39:08;;;;;;;4.30;4.10;;;23.50;72.60;;;;;;5053801;28;20903;-75
2022/07/15 12:41:36;;;;;;;4.00;3.53;;;23.50;75.00;;;;;;5053802;28;20424;-73
2022/07/15 12:44:03;;;;;;;7.97;4.57;;;23.40;74.20;;;;;;5054345;28;20507;-73
2022/07/15 12:46:56;;;;;;;3.67;3.33;;;23.40;72.60;;;;;;5035339;28;20415;-73
2022/07/15 12:49:41;;;;;;;4.17;3.77;;;23.30;73.30;;;;;;5047426;28;20478;-73
2022/07/15 12:52:29;;;;;;;4.03;3.60;;;23.40;74.30;;;;;;5034210;28;20531;-75
2022/07/15 12:54:56;;;;;;;4.53;4.27;;;23.50;74.90;;;;;;5046163;28;20881;-71
2022/07/15 12:57:27;;;;;;;4.50;4.10;;;23.60;74.30;;;;;;5044099;28;20578;-80
2022/07/15 12:59:58;;;;;;;4.40;2.70;;;23.60;69.60;;;;;;5045451;28;20460;-72
2022/07/15 13:02:25;;;;;;;3.40;3.10;;;23.50;68.40;;;;;;5044214;28;20452;-74
2022/07/15 13:04:54;;;;;;;4.00;3.50;;;23.50;70.10;;;;;;5043794;28;20435;-68
2022/07/15 13:07:20;;;;;;;5.10;3.07;;;23.40;70.30;;;;;;5049389;28;20776;-72
2022/07/15 13:09:45;;;;;;;2.80;2.60;;;23.20;71.00;;;;;;5046605;28;20563;-73
2022/07/15 13:12:12;;;;;;;3.30;3.00;;;23.20;70.30;;;;;;5014359;28;20467;-72